Time;durP1;ratioP1;P1;durP2;ratioP2;P2;SDS_P1;SDS_P2;PMS_P1;PMS_P2;Temp;Humidity;BMP_temperature;BMP_pressure;BME280_temperature;BME280_humidity;BME280_pressure;Samples;Min_cycle;Max_cycle;Signal;HPM_P1;HPM_P2
2023/08/25 00:00:09;;;;;;;5.27;4.97;;;22.00;99.90;;;;;;5030776;28;20420;-59
2023/08/25 00:02:36;;;;;;;5.50;5.10;;;22.00;99.90;;;;;;5032345;28;20174;-61
2023/08/25 00:05:03;;;;;;;5.30;4.90;;;22.00;99.90;;;;;;5031198;28;20862;-61
2023/08/25 00:07:29;;;;;;;6.60;6.10;;;21.90;99.90;;;;;;5031621;28;20414;-61
2023/08/25 00:09:55;;;;;;;6.53;6.13;;;21.90;99.90;;;;;;5032670;28;20514;-62
2023/08/25 00:12:22;;;;;;;5.70;5.30;;;21.90;99.90;;;;;;5030557;28;20440;-62
2023/08/25 00:14:48;;;;;;;8.10;6.40;;;21.90;99.90;;;;;;5031842;28;20445;-61
2023/08/25 00:17:14;;;;;;;5.67;5.27;;;21.90;99.90;;;;;;5031558;28;20908;-61
2023/08/25 00:19:40;;;;;;;6.10;5.67;;;21.90;99.90;;;;;;5030831;28;20500;-61
2023/08/25 00:22:06;;;;;;;6.23;5.70;;;21.90;99.90;;;;;;5032115;28;20503;-59
2023/08/25 00:24:35;;;;;;;6.70;6.30;;;21.90;99.90;;;;;;5031663;28;20173;-62
2023/08/25 00:27:01;;;;;;;6.63;5.77;;;21.90;99.90;;;;;;5032243;28;20467;-61
2023/08/25 00:29:27;;;;;;;6.20;5.80;;;21.90;99.90;;;;;;5030706;28;22351;-61
2023/08/25 00:31:52;;;;;;;5.87;5.40;;;21.90;99.90;;;;;;5030422;28;20453;-62
2023/08/25 00:34:18;;;;;;;6.10;5.50;;;21.90;99.90;;;;;;5031647;28;20174;-61
2023/08/25 00:36:44;;;;;;;5.13;4.83;;;21.80;99.90;;;;;;5031517;28;20174;-61
2023/08/25 00:39:10;;;;;;;6.07;5.63;;;21.80;99.90;;;;;;5030965;28;20170;-59
2023/08/25 00:41:36;;;;;;;6.00;5.60;;;21.80;99.90;;;;;;5031976;28;20170;-62
2023/08/25 00:44:02;;;;;;;6.23;5.73;;;21.80;99.90;;;;;;5031282;28;20922;-62
2023/08/25 00:46:29;;;;;;;5.70;5.30;;;21.80;99.90;;;;;;5030219;28;20416;-61
2023/08/25 00:48:56;;;;;;;6.63;5.60;;;21.80;99.90;;;;;;5032103;28;20424;-61
2023/08/25 00:51:21;;;;;;;5.50;5.10;;;21.70;99.90;;;;;;5031080;28;20467;-61
2023/08/25 00:53:48;;;;;;;5.73;5.33;;;21.70;99.90;;;;;;5031348;28;20412;-61
2023/08/25 00:56:17;;;;;;;5.20;4.80;;;21.70;99.90;;;;;;5030468;28;20194;-61
2023/08/25 00:58:43;;;;;;;6.57;6.07;;;21.70;99.90;;;;;;5031761;28;20528;-61
2023/08/25 01:01:11;;;;;;;6.17;5.77;;;21.70;99.90;;;;;;5031056;28;20417;-59
2023/08/25 01:03:39;;;;;;;6.57;6.17;;;21.70;99.90;;;;;;5031705;28;20453;-61
2023/08/25 01:06:06;;;;;;;6.97;6.50;;;21.70;99.90;;;;;;5030272;28;20435;-61
2023/08/25 01:08:32;;;;;;;6.70;6.23;;;21.70;99.90;;;;;;5018012;28;20425;-61
2023/08/25 01:11:20;;;;;;;7.03;6.43;;;21.70;99.90;;;;;;5031707;28;20424;-61
2023/08/25 01:14:03;;;;;;;6.00;5.60;;;21.70;99.90;;;;;;5030723;28;20428;-61
2023/08/25 01:16:52;;;;;;;6.30;5.80;;;21.70;99.90;;;;;;5030568;28;20429;-61
2023/08/25 01:19:53;;;;;;;6.00;5.70;;;21.70;99.90;;;;;;5029647;28;20429;-61
2023/08/25 01:22:49;;;;;;;6.63;5.50;;;21.70;99.90;;;;;;5029308;28;20812;-61
2023/08/25 01:25:25;;;;;;;6.13;5.63;;;21.60;99.90;;;;;;5032889;28;20970;-61
2023/08/25 01:27:52;;;;;;;5.90;5.50;;;21.70;99.90;;;;;;5034546;28;20424;-61
2023/08/25 01:30:19;;;;;;;6.13;5.63;;;21.70;99.90;;;;;;5021931;28;21026;-61
2023/08/25 01:32:45;;;;;;;7.33;5.67;;;21.60;99.90;;;;;;5034677;28;20420;-61
2023/08/25 01:35:14;;;;;;;6.93;6.43;;;21.60;99.90;;;;;;5035123;28;20448;-59
2023/08/25 01:37:48;;;;;;;5.67;5.27;;;21.60;99.90;;;;;;5035347;28;20431;-61
2023/08/25 01:40:24;;;;;;;5.70;5.27;;;21.60;99.90;;;;;;5034227;28;20432;-61
2023/08/25 01:42:54;;;;;;;5.50;5.10;;;21.60;99.90;;;;;;5036050;28;20769;-61
2023/08/25 01:45:22;;;;;;;5.67;5.03;;;21.60;99.90;;;;;;5034170;28;20439;-61
2023/08/25 01:47:50;;;;;;;5.43;5.13;;;21.60;99.90;;;;;;5034984;28;20462;-61
2023/08/25 01:50:19;;;;;;;6.30;5.80;;;21.60;99.90;;;;;;5034947;28;20428;-63
2023/08/25 01:52:45;;;;;;;5.10;4.70;;;21.60;99.90;;;;;;5033523;28;20421;-61
2023/08/25 01:55:11;;;;;;;6.23;5.60;;;21.60;99.90;;;;;;5034632;28;20453;-59
2023/08/25 01:57:37;;;;;;;5.70;5.30;;;21.60;99.90;;;;;;5034125;28;20429;-61
2023/08/25 02:00:04;;;;;;;5.03;4.73;;;21.60;99.90;;;;;;5034953;28;20638;-61
2023/08/25 02:02:30;;;;;;;5.70;5.20;;;21.50;99.90;;;;;;5034474;28;20942;-62
2023/08/25 02:04:56;;;;;;;5.43;5.10;;;21.50;99.90;;;;;;5034811;28;20475;-62
2023/08/25 02:07:23;;;;;;;5.83;5.33;;;21.50;99.90;;;;;;5033931;28;20184;-61
2023/08/25 02:09:49;;;;;;;5.70;5.30;;;21.50;99.90;;;;;;5034854;28;20254;-61
2023/08/25 02:12:15;;;;;;;5.30;5.00;;;21.50;99.90;;;;;;5032909;28;20416;-59
2023/08/25 02:14:41;;;;;;;5.60;5.10;;;21.50;99.90;;;;;;5034403;28;20539;-61
2023/08/25 02:17:06;;;;;;;5.70;5.20;;;21.50;99.90;;;;;;5034529;28;20228;-61
2023/08/25 02:19:33;;;;;;;5.33;4.97;;;21.50;99.90;;;;;;5034280;28;20740;-61
2023/08/25 02:21:59;;;;;;;5.70;5.40;;;21.50;99.90;;;;;;5034478;28;20579;-61
2023/08/25 02:24:24;;;;;;;5.73;5.33;;;21.50;99.90;;;;;;5033718;28;20417;-61
2023/08/25 02:26:50;;;;;;;9.53;6.30;;;21.50;99.90;;;;;;5033670;28;20167;-61
2023/08/25 02:29:16;;;;;;;6.37;5.87;;;21.50;99.90;;;;;;5033732;28;20531;-59
2023/08/25 02:31:41;;;;;;;6.80;6.30;;;21.50;99.90;;;;;;5034469;28;20174;-61
2023/08/25 02:34:07;;;;;;;6.17;5.67;;;21.50;99.90;;;;;;5033816;28;20210;-61
2023/08/25 02:36:33;;;;;;;5.57;5.07;;;21.50;99.90;;;;;;5033315;28;20183;-62
2023/08/25 02:38:59;;;;;;;5.73;5.33;;;21.50;99.90;;;;;;5034395;28;20495;-62
2023/08/25 02:41:24;;;;;;;5.47;5.17;;;21.40;99.90;;;;;;5033340;28;20178;-62
2023/08/25 02:43:50;;;;;;;6.10;5.60;;;21.40;99.90;;;;;;5034500;28;20680;-61
2023/08/25 02:46:16;;;;;;;5.73;5.40;;;21.40;99.90;;;;;;5033807;28;20178;-59
2023/08/25 02:48:41;;;;;;;6.13;5.63;;;21.40;99.90;;;;;;5033791;28;20225;-61
2023/08/25 02:51:07;;;;;;;6.70;5.93;;;21.40;99.90;;;;;;5034045;28;20603;-61
2023/08/25 02:53:33;;;;;;;5.63;5.13;;;21.30;99.90;;;;;;5033528;28;20182;-61
2023/08/25 02:55:58;;;;;;;6.63;6.13;;;21.30;99.90;;;;;;5033158;28;20285;-62
2023/08/25 02:58:24;;;;;;;7.60;6.90;;;21.30;99.90;;;;;;5032914;28;20769;-61
2023/08/25 03:00:50;;;;;;;6.83;6.43;;;21.40;99.90;;;;;;5034310;28;20178;-61
2023/08/25 03:03:15;;;;;;;7.00;6.40;;;21.40;99.90;;;;;;5033187;28;20222;-59
2023/08/25 03:05:41;;;;;;;7.10;6.60;;;21.40;99.90;;;;;;5033740;28;20170;-61
2023/08/25 03:08:12;;;;;;;8.17;7.37;;;21.40;99.90;;;;;;5034178;28;20622;-61
2023/08/25 03:10:41;;;;;;;7.07;6.60;;;21.30;99.90;;;;;;5032791;28;20570;-62
2023/08/25 03:13:07;;;;;;;7.03;6.53;;;21.30;99.90;;;;;;5033540;28;20467;-61
2023/08/25 03:15:34;;;;;;;7.07;6.60;;;21.30;99.90;;;;;;5033085;28;20465;-61
2023/08/25 03:18:00;;;;;;;6.83;6.33;;;21.30;99.90;;;;;;5033434;28;20163;-62
2023/08/25 03:20:26;;;;;;;6.57;6.17;;;21.20;99.90;;;;;;5031808;28;20420;-61
2023/08/25 03:22:52;;;;;;;6.60;6.20;;;21.20;99.90;;;;;;5032989;28;20212;-62
2023/08/25 03:25:18;;;;;;;7.13;6.53;;;21.20;99.90;;;;;;5031842;28;20174;-59
2023/08/25 03:27:44;;;;;;;8.83;7.60;;;21.30;99.90;;;;;;5033451;28;20911;-62
2023/08/25 03:30:10;;;;;;;7.27;6.73;;;21.30;99.90;;;;;;5033727;28;20519;-62
2023/08/25 03:32:35;;;;;;;7.03;6.50;;;21.20;99.90;;;;;;5032849;28;20281;-62
2023/08/25 03:35:01;;;;;;;6.10;5.80;;;21.20;99.90;;;;;;5033589;28;20535;-61
2023/08/25 03:37:27;;;;;;;6.90;6.40;;;21.20;99.90;;;;;;5032615;28;20171;-60
2023/08/25 03:39:53;;;;;;;7.40;6.90;;;21.20;99.90;;;;;;5032898;28;20763;-61
2023/08/25 03:42:19;;;;;;;9.40;8.80;;;21.20;99.90;;;;;;5033042;28;20197;-60
2023/08/25 03:44:45;;;;;;;7.70;7.00;;;21.10;99.90;;;;;;5032390;28;20170;-61
2023/08/25 03:47:10;;;;;;;10.80;10.20;;;21.10;99.90;;;;;;5032227;28;20178;-61
2023/08/25 03:49:36;;;;;;;7.87;7.30;;;21.10;99.90;;;;;;5031805;28;20416;-61
2023/08/25 03:52:02;;;;;;;7.97;7.37;;;21.10;99.90;;;;;;5032929;28;20518;-61
2023/08/25 03:54:31;;;;;;;7.00;6.50;;;21.10;99.90;;;;;;5032406;28;20198;-61
2023/08/25 03:56:57;;;;;;;7.87;7.17;;;21.10;99.90;;;;;;5032350;28;20835;-61
2023/08/25 03:59:22;;;;;;;9.13;8.37;;;21.10;99.90;;;;;;5031842;28;20841;-61
2023/08/25 04:01:48;;;;;;;8.47;7.87;;;21.10;99.90;;;;;;5030372;28;20413;-62
2023/08/25 04:04:14;;;;;;;10.07;9.27;;;21.10;99.90;;;;;;5031163;28;20264;-62
2023/08/25 04:06:41;;;;;;;8.67;8.07;;;21.10;99.90;;;;;;5031154;28;20421;-61
2023/08/25 04:09:07;;;;;;;8.60;7.87;;;21.10;99.90;;;;;;5032196;28;20253;-60
2023/08/25 04:11:33;;;;;;;9.60;8.70;;;21.10;99.90;;;;;;5031746;28;20441;-61
2023/08/25 04:13:59;;;;;;;8.47;7.80;;;21.00;99.90;;;;;;5033015;28;20171;-61
2023/08/25 04:16:24;;;;;;;8.90;8.30;;;21.00;99.90;;;;;;5032125;28;20237;-61
2023/08/25 04:18:50;;;;;;;8.70;7.80;;;21.10;99.90;;;;;;5031873;28;20274;-61
2023/08/25 04:21:16;;;;;;;8.27;7.57;;;21.10;99.90;;;;;;5027987;28;20178;-61
2023/08/25 04:23:41;;;;;;;9.17;8.33;;;21.10;99.90;;;;;;5031673;28;20768;-61
2023/08/25 04:26:07;;;;;;;10.03;9.33;;;21.10;99.90;;;;;;5031310;28;20534;-61
2023/08/25 04:28:33;;;;;;;9.20;8.50;;;21.10;99.90;;;;;;5029850;28;20249;-62
2023/08/25 04:30:58;;;;;;;8.73;8.03;;;21.10;99.90;;;;;;5032623;28;20262;-60
2023/08/25 04:33:24;;;;;;;9.13;8.33;;;21.10;99.90;;;;;;5031643;28;20176;-60
2023/08/25 04:35:50;;;;;;;8.60;7.80;;;21.00;99.90;;;;;;5032550;28;20205;-59
2023/08/25 04:38:16;;;;;;;8.37;7.73;;;21.00;99.90;;;;;;5031570;28;20197;-59
2023/08/25 04:40:42;;;;;;;9.73;9.03;;;21.10;99.90;;;;;;5031693;28;20170;-59
2023/08/25 04:43:08;;;;;;;8.30;7.70;;;21.10;99.90;;;;;;5032434;28;20514;-59
2023/08/25 04:45:33;;;;;;;8.80;8.10;;;21.10;99.90;;;;;;5031292;28;20428;-59
2023/08/25 04:47:59;;;;;;;10.03;9.23;;;21.10;99.90;;;;;;5031393;28;20171;-59
2023/08/25 04:50:25;;;;;;;9.20;8.40;;;21.00;99.90;;;;;;5029923;28;20182;-58
2023/08/25 04:52:51;;;;;;;9.63;8.70;;;21.00;99.90;;;;;;5031972;28;20625;-59
2023/08/25 04:55:17;;;;;;;9.47;8.77;;;21.00;99.90;;;;;;5028411;28;20523;-59
2023/08/25 04:57:43;;;;;;;9.80;9.00;;;21.00;99.90;;;;;;5030750;28;20428;-59
2023/08/25 05:00:09;;;;;;;10.00;9.30;;;21.00;99.90;;;;;;5032098;28;20243;-60
2023/08/25 05:02:35;;;;;;;12.23;9.40;;;21.10;99.90;;;;;;5031005;28;20413;-62
2023/08/25 05:05:03;;;;;;;8.87;8.17;;;21.00;99.90;;;;;;5030955;28;20951;-60
2023/08/25 05:07:29;;;;;;;10.30;9.40;;;21.00;99.90;;;;;;5030107;28;20764;-59
2023/08/25 05:09:55;;;;;;;8.97;8.30;;;21.10;99.90;;;;;;5031540;28;20417;-59
2023/08/25 05:12:20;;;;;;;10.10;9.23;;;21.10;99.90;;;;;;5031338;28;20565;-59
2023/08/25 05:14:46;;;;;;;9.13;8.40;;;21.10;99.90;;;;;;5028834;28;20241;-59
2023/08/25 05:17:12;;;;;;;9.73;8.93;;;21.10;99.90;;;;;;5029679;28;20220;-59
2023/08/25 05:19:37;;;;;;;9.73;8.90;;;21.20;99.90;;;;;;5030513;28;20521;-59
2023/08/25 05:22:03;;;;;;;9.47;8.67;;;21.20;99.90;;;;;;5030529;28;20197;-59
2023/08/25 05:24:29;;;;;;;9.60;8.70;;;21.20;99.90;;;;;;5030360;28;20181;-59
2023/08/25 05:26:55;;;;;;;9.30;8.40;;;21.20;99.90;;;;;;5031199;28;20624;-59
2023/08/25 05:29:27;;;;;;;8.20;7.53;;;21.20;99.90;;;;;;5031041;28;20171;-59
2023/08/25 05:31:53;;;;;;;8.00;7.30;;;21.30;99.90;;;;;;5032099;28;20394;-59
2023/08/25 05:34:20;;;;;;;7.97;7.27;;;21.20;99.90;;;;;;5030637;28;20523;-59
2023/08/25 05:36:46;;;;;;;7.70;6.93;;;21.30;99.90;;;;;;5026345;28;20533;-59
2023/08/25 05:39:12;;;;;;;10.47;7.33;;;21.30;99.90;;;;;;5019503;28;20421;-59
2023/08/25 05:41:38;;;;;;;11.80;7.37;;;21.40;99.90;;;;;;5028776;28;20903;-59
2023/08/25 05:44:04;;;;;;;7.73;7.10;;;21.40;99.90;;;;;;5031379;28;20413;-59
2023/08/25 05:46:30;;;;;;;10.17;8.00;;;21.40;99.90;;;;;;5030374;28;20854;-59
2023/08/25 05:48:59;;;;;;;7.57;7.07;;;21.40;99.90;;;;;;5031429;28;20500;-59
2023/08/25 05:51:26;;;;;;;8.90;8.20;;;21.40;99.90;;;;;;5031241;28;20491;-59
2023/08/25 05:53:52;;;;;;;8.33;7.50;;;21.40;99.90;;;;;;5029455;28;20931;-59
2023/08/25 05:56:18;;;;;;;7.10;6.60;;;21.40;99.90;;;;;;5031394;28;20429;-59
2023/08/25 05:58:44;;;;;;;7.30;6.60;;;21.50;99.90;;;;;;5029748;28;20484;-59
2023/08/25 06:01:11;;;;;;;8.17;7.47;;;21.50;99.90;;;;;;5031663;28;20495;-59
2023/08/25 06:03:37;;;;;;;7.83;7.10;;;21.60;99.90;;;;;;5030623;28;20218;-59
2023/08/25 06:06:03;;;;;;;8.47;7.70;;;21.60;99.90;;;;;;5031660;28;20508;-59
2023/08/25 06:08:30;;;;;;;8.13;7.50;;;21.70;99.90;;;;;;5030773;28;20886;-58
2023/08/25 06:10:56;;;;;;;9.00;8.20;;;21.70;99.90;;;;;;5032518;28;20199;-59
2023/08/25 06:13:22;;;;;;;7.70;6.90;;;21.70;99.90;;;;;;5035238;28;20868;-59
2023/08/25 06:15:52;;;;;;;8.40;7.60;;;21.80;99.90;;;;;;5034211;28;20446;-59
2023/08/25 06:18:17;;;;;;;8.07;7.40;;;21.80;99.90;;;;;;5034782;28;20401;-59
2023/08/25 06:20:43;;;;;;;7.73;7.13;;;21.90;99.90;;;;;;5034378;28;20435;-63
2023/08/25 06:23:11;;;;;;;8.13;7.33;;;21.90;99.90;;;;;;5034636;28;20206;-63
2023/08/25 06:25:37;;;;;;;8.17;7.37;;;21.90;99.90;;;;;;5033905;28;20614;-62
2023/08/25 06:28:03;;;;;;;8.10;6.50;;;21.60;99.90;;;;;;5034788;28;20547;-62
2023/08/25 06:30:29;;;;;;;7.40;6.70;;;21.60;99.90;;;;;;5033855;28;20428;-61
2023/08/25 06:32:55;;;;;;;8.23;7.57;;;21.60;99.90;;;;;;5035048;28;20440;-62
2023/08/25 06:35:22;;;;;;;9.30;8.60;;;21.50;99.90;;;;;;5034507;28;20460;-62
2023/08/25 06:37:49;;;;;;;8.70;7.90;;;21.90;99.90;;;;;;5033248;28;20483;-63
2023/08/25 06:40:17;;;;;;;8.20;7.50;;;22.20;99.90;;;;;;5033356;28;20410;-63
2023/08/25 06:42:42;;;;;;;10.10;9.30;;;22.50;99.90;;;;;;5033655;28;20547;-62
2023/08/25 06:45:11;;;;;;;10.70;9.80;;;22.70;99.90;;;;;;5034281;28;20261;-63
2023/08/25 06:47:38;;;;;;;10.60;9.67;;;22.90;99.90;;;;;;5034403;28;20414;-62
2023/08/25 06:50:05;;;;;;;10.00;9.20;;;23.10;99.90;;;;;;5034689;28;20496;-63
2023/08/25 06:52:31;;;;;;;34.53;29.57;;;23.30;99.90;;;;;;5033925;28;20409;-62
2023/08/25 06:54:58;;;;;;;16.07;13.60;;;23.40;99.90;;;;;;5034429;28;20539;-63
2023/08/25 06:57:24;;;;;;;69.77;58.27;;;23.50;99.90;;;;;;5034481;28;20819;-62
2023/08/25 06:59:50;;;;;;;11.50;8.87;;;23.60;99.90;;;;;;5033450;28;20567;-63
2023/08/25 07:02:16;;;;;;;42.27;37.77;;;23.60;99.90;;;;;;5034424;28;20401;-63
2023/08/25 07:04:42;;;;;;;94.93;80.53;;;23.50;99.90;;;;;;5033646;28;20526;-63
2023/08/25 07:07:08;;;;;;;28.53;25.47;;;23.40;99.90;;;;;;5033794;28;20905;-63
2023/08/25 07:09:35;;;;;;;10.03;9.00;;;23.40;99.90;;;;;;5033664;28;20177;-63
2023/08/25 07:12:03;;;;;;;69.33;54.90;;;23.30;99.90;;;;;;5034134;28;20178;-63
2023/08/25 07:14:31;;;;;;;48.13;41.67;;;23.20;99.90;;;;;;5033497;28;20405;-61
2023/08/25 07:16:58;;;;;;;39.70;33.93;;;23.30;99.90;;;;;;5034238;28;20411;-63
2023/08/25 07:19:23;;;;;;;15.60;14.10;;;23.40;99.90;;;;;;5034015;28;20413;-63
2023/08/25 07:21:49;;;;;;;27.13;23.00;;;23.50;99.90;;;;;;5032782;28;20675;-63
2023/08/25 07:24:15;;;;;;;7.93;7.13;;;23.60;99.90;;;;;;5034029;28;20176;-63
2023/08/25 07:26:40;;;;;;;7.63;6.93;;;23.60;99.90;;;;;;5033208;28;20177;-62
2023/08/25 07:29:06;;;;;;;7.87;7.20;;;23.20;99.90;;;;;;5032818;28;20178;-62
2023/08/25 07:31:32;;;;;;;7.70;6.43;;;22.60;99.90;;;;;;5033267;28;20257;-61
2023/08/25 07:33:58;;;;;;;21.37;18.40;;;22.10;99.90;;;;;;5033057;28;20495;-62
2023/08/25 07:36:24;;;;;;;16.97;15.27;;;22.10;99.90;;;;;;5032280;28;20210;-62
2023/08/25 07:38:50;;;;;;;17.23;15.53;;;22.40;99.90;;;;;;5032772;28;20480;-63
2023/08/25 07:41:20;;;;;;;18.00;16.10;;;22.70;99.90;;;;;;5032264;28;20440;-63
2023/08/25 07:43:46;;;;;;;14.00;12.80;;;22.80;99.90;;;;;;5032786;28;20173;-63
2023/08/25 07:46:12;;;;;;;15.00;13.50;;;23.10;99.90;;;;;;5033570;28;20401;-63
2023/08/25 07:48:37;;;;;;;13.93;12.63;;;23.30;99.90;;;;;;5032600;28;20412;-63
2023/08/25 07:51:04;;;;;;;13.77;12.57;;;23.50;99.90;;;;;;5033399;28;20205;-63
2023/08/25 07:53:31;;;;;;;12.33;11.33;;;23.60;99.90;;;;;;5033345;28;20169;-66
2023/08/25 07:55:57;;;;;;;13.63;10.10;;;23.70;99.90;;;;;;5032948;28;20555;-65
2023/08/25 07:58:23;;;;;;;10.87;8.50;;;23.80;99.90;;;;;;5033253;28;20492;-65
2023/08/25 08:00:49;;;;;;;10.20;9.23;;;23.80;99.90;;;;;;5030593;28;20504;-65
2023/08/25 08:03:15;;;;;;;47.93;38.47;;;23.90;99.90;;;;;;5032282;28;20253;-65
2023/08/25 08:05:42;;;;;;;14.73;11.67;;;23.80;99.90;;;;;;5032470;28;20394;-65
2023/08/25 08:08:09;;;;;;;32.60;29.27;;;23.90;99.90;;;;;;5033015;28;20405;-65
2023/08/25 08:10:36;;;;;;;24.60;21.53;;;23.90;99.90;;;;;;5032378;28;20403;-63
2023/08/25 08:13:03;;;;;;;15.30;11.13;;;23.90;99.90;;;;;;5032060;28;20463;-66
2023/08/25 08:15:30;;;;;;;40.10;35.80;;;23.80;99.90;;;;;;5031939;28;20811;-65
2023/08/25 08:17:56;;;;;;;15.33;13.70;;;23.70;99.90;;;;;;5032394;28;20409;-65
2023/08/25 08:20:22;;;;;;;15.57;13.97;;;23.60;99.90;;;;;;5032887;28;20776;-65
2023/08/25 08:22:48;;;;;;;12.10;10.90;;;23.30;99.90;;;;;;5032316;28;20397;-66
2023/08/25 08:25:14;;;;;;;12.67;9.40;;;23.30;99.90;;;;;;5032985;28;20825;-66
2023/08/25 08:27:41;;;;;;;47.60;41.77;;;23.20;99.90;;;;;;5032741;28;20193;-66
2023/08/25 08:30:08;;;;;;;374.30;313.57;;;23.10;99.90;;;;;;5031678;28;20413;-66
2023/08/25 08:32:35;;;;;;;38.40;33.47;;;23.10;99.90;;;;;;5030877;28;20422;-65
2023/08/25 08:35:07;;;;;;;23.33;20.60;;;23.10;99.90;;;;;;5032384;28;20463;-67
2023/08/25 08:37:33;;;;;;;24.93;22.30;;;23.20;99.90;;;;;;5031873;28;20413;-66
2023/08/25 08:40:00;;;;;;;17.77;15.97;;;23.30;99.90;;;;;;5031767;28;20488;-67
2023/08/25 08:42:27;;;;;;;10.80;9.23;;;23.40;99.90;;;;;;5032598;28;20433;-67
2023/08/25 08:44:56;;;;;;;11.17;9.50;;;23.40;99.90;;;;;;5031642;28;20484;-66
2023/08/25 08:47:22;;;;;;;17.10;15.40;;;23.00;99.90;;;;;;5032508;28;20452;-66
2023/08/25 08:49:50;;;;;;;10.60;9.77;;;22.80;99.90;;;;;;5032036;28;20432;-66
2023/08/25 08:52:17;;;;;;;11.30;10.20;;;22.80;99.90;;;;;;5032594;28;20448;-67
2023/08/25 08:54:44;;;;;;;11.10;10.00;;;22.70;99.90;;;;;;5031590;28;20452;-66
2023/08/25 08:57:11;;;;;;;10.73;9.80;;;22.40;99.90;;;;;;5032314;28;20446;-66
2023/08/25 08:59:37;;;;;;;11.97;10.77;;;22.10;99.90;;;;;;5031919;28;20405;-64
2023/08/25 09:02:04;;;;;;;11.87;10.83;;;21.80;99.90;;;;;;5031983;28;20868;-67
2023/08/25 09:04:30;;;;;;;11.53;10.63;;;21.80;99.90;;;;;;5032252;28;20225;-66
2023/08/25 09:06:58;;;;;;;12.77;11.70;;;21.70;99.90;;;;;;5031208;28;20559;-66
2023/08/25 09:09:24;;;;;;;12.50;11.50;;;21.50;99.90;;;;;;5031922;28;21023;-66
2023/08/25 09:11:50;;;;;;;12.13;10.93;;;21.40;99.90;;;;;;5031396;28;20414;-66
2023/08/25 09:14:29;;;;;;;12.47;11.40;;;21.50;99.90;;;;;;5032422;28;20514;-66
2023/08/25 09:16:59;;;;;;;11.93;11.00;;;21.70;99.90;;;;;;5031282;28;20416;-66
2023/08/25 09:19:32;;;;;;;12.80;11.67;;;21.60;99.90;;;;;;5032420;28;20398;-66
2023/08/25 09:21:58;;;;;;;14.67;13.47;;;21.50;99.90;;;;;;5031884;28;20385;-66
2023/08/25 09:24:24;;;;;;;12.60;11.50;;;21.10;99.90;;;;;;5032373;28;20412;-67
2023/08/25 09:26:51;;;;;;;11.73;10.83;;;20.90;99.90;;;;;;5031034;28;20479;-66
2023/08/25 09:29:17;;;;;;;10.87;10.07;;;21.00;99.90;;;;;;5032457;28;20480;-67
2023/08/25 09:31:45;;;;;;;11.10;10.37;;;21.10;99.90;;;;;;5031590;28;20401;-66
2023/08/25 09:34:15;;;;;;;10.43;9.73;;;21.10;99.90;;;;;;5031658;28;20943;-65
2023/08/25 09:36:55;;;;;;;11.20;10.30;;;21.00;99.90;;;;;;5031280;28;20527;-62
2023/08/25 09:39:22;;;;;;;11.43;10.53;;;21.00;99.90;;;;;;5031946;28;20495;-64
2023/08/25 09:41:48;;;;;;;11.00;10.20;;;21.00;99.90;;;;;;5029246;28;20908;-63
2023/08/25 09:44:18;;;;;;;10.27;9.47;;;21.10;99.90;;;;;;5032214;28;20444;-63
2023/08/25 09:46:45;;;;;;;12.77;11.43;;;21.30;99.90;;;;;;5034133;28;20423;-63
2023/08/25 09:49:12;;;;;;;10.50;9.70;;;21.50;99.90;;;;;;5034986;28;20409;-62
2023/08/25 09:51:41;;;;;;;10.87;9.97;;;21.70;99.90;;;;;;5034995;28;20826;-61
2023/08/25 09:54:12;;;;;;;10.00;9.17;;;21.90;99.90;;;;;;5035381;28;20425;-62
2023/08/25 09:56:40;;;;;;;8.03;7.53;;;22.00;99.90;;;;;;5035805;28;20918;-62
2023/08/25 09:59:07;;;;;;;9.53;8.73;;;22.10;99.90;;;;;;5034272;28;20421;-62
2023/08/25 10:01:34;;;;;;;8.80;8.20;;;22.20;99.90;;;;;;5035613;28;20397;-63
2023/08/25 10:04:03;;;;;;;8.57;7.93;;;22.30;99.90;;;;;;5034587;28;20513;-62
2023/08/25 10:06:31;;;;;;;8.87;8.07;;;22.40;99.90;;;;;;5033245;28;20428;-62
2023/08/25 10:09:00;;;;;;;142.87;117.03;;;22.40;99.90;;;;;;5034696;28;20435;-62
2023/08/25 10:11:41;;;;;;;85.87;70.83;;;22.60;99.90;;;;;;5035155;28;20414;-62
2023/08/25 10:14:11;;;;;;;143.90;129.27;;;22.60;99.90;;;;;;5034854;28;20401;-62
2023/08/25 10:16:47;;;;;;;16.20;14.83;;;22.80;99.90;;;;;;5035100;28;20463;-63
2023/08/25 10:19:14;;;;;;;135.53;120.93;;;22.90;99.90;;;;;;5050343;28;20758;-62
2023/08/25 10:21:44;;;;;;;374.83;336.27;;;22.90;99.90;;;;;;5034360;28;20409;-62
2023/08/25 10:24:10;;;;;;;36.53;32.70;;;22.90;99.90;;;;;;5028010;28;20444;-63
2023/08/25 10:26:36;;;;;;;9.43;8.73;;;23.00;99.90;;;;;;5034654;28;20416;-64
2023/08/25 10:29:03;;;;;;;17.13;15.70;;;23.00;99.90;;;;;;5033990;28;20432;-63
2023/08/25 10:31:30;;;;;;;13.43;12.33;;;23.10;99.90;;;;;;5034705;28;20420;-63
2023/08/25 10:33:56;;;;;;;9.87;8.77;;;23.10;99.90;;;;;;5033179;28;20563;-63
2023/08/25 10:36:22;;;;;;;11.00;10.10;;;23.10;99.90;;;;;;5028476;28;20449;-63
2023/08/25 10:38:54;;;;;;;9.40;8.63;;;23.10;99.90;;;;;;5014582;28;20414;-63
2023/08/25 10:41:23;;;;;;;9.57;8.77;;;23.10;99.90;;;;;;5034777;28;20452;-63
2023/08/25 10:43:53;;;;;;;11.40;10.33;;;23.10;99.90;;;;;;5034210;28;20405;-68
2023/08/25 10:46:20;;;;;;;8.60;7.90;;;23.10;99.90;;;;;;5034761;28;20754;-63
2023/08/25 10:48:50;;;;;;;12.73;11.53;;;23.20;99.90;;;;;;5033913;28;20416;-62
2023/08/25 10:51:20;;;;;;;8.40;7.77;;;23.20;99.90;;;;;;5034283;28;20448;-63
2023/08/25 10:53:49;;;;;;;10.47;9.70;;;23.20;99.90;;;;;;5033313;28;20912;-62
2023/08/25 10:56:22;;;;;;;98.33;78.87;;;23.10;99.90;;;;;;5013838;28;20446;-63
2023/08/25 10:59:11;;;;;;;8.70;7.90;;;23.00;99.90;;;;;;5026671;28;20414;-63
2023/08/25 11:01:37;;;;;;;9.87;8.93;;;22.90;99.90;;;;;;5033915;28;20405;-63
2023/08/25 11:04:10;;;;;;;10.00;9.20;;;22.80;99.90;;;;;;5032996;28;21039;-63
2023/08/25 11:06:40;;;;;;;8.87;8.17;;;22.70;99.90;;;;;;5031641;28;20652;-63
2023/08/25 11:09:09;;;;;;;7.43;6.80;;;22.70;99.90;;;;;;5032478;28;20424;-63
2023/08/25 11:11:36;;;;;;;7.80;7.20;;;22.70;99.90;;;;;;5033659;28;20412;-63
2023/08/25 11:14:03;;;;;;;7.30;6.60;;;22.80;99.90;;;;;;5032961;28;20826;-63
2023/08/25 11:16:29;;;;;;;7.17;6.47;;;22.80;99.90;;;;;;5033973;28;20444;-63
2023/08/25 11:18:54;;;;;;;6.97;6.37;;;22.80;99.90;;;;;;5032186;28;20904;-63
2023/08/25 11:21:26;;;;;;;8.60;7.80;;;22.80;99.90;;;;;;5033291;28;20170;-62
2023/08/25 11:23:53;;;;;;;9.30;8.40;;;22.90;99.90;;;;;;5032011;28;20536;-63
2023/08/25 11:26:19;;;;;;;6.07;5.40;;;22.90;99.90;;;;;;5033838;28;20435;-63
2023/08/25 11:28:49;;;;;;;5.80;5.40;;;22.70;99.90;;;;;;5033263;28;20421;-62
2023/08/25 11:31:15;;;;;;;5.73;5.20;;;22.40;99.90;;;;;;5033359;28;20171;-63
2023/08/25 11:33:41;;;;;;;4.63;4.37;;;22.30;99.90;;;;;;5029012;28;20425;-63
2023/08/25 11:36:07;;;;;;;5.10;4.60;;;22.30;99.90;;;;;;5031961;28;20539;-63
2023/08/25 11:38:33;;;;;;;7.37;6.87;;;22.30;99.90;;;;;;5032927;28;20601;-63
2023/08/25 11:40:59;;;;;;;6.00;5.40;;;22.50;99.90;;;;;;5032709;28;20405;-63
2023/08/25 11:43:36;;;;;;;6.47;5.87;;;22.60;99.90;;;;;;5033159;28;20603;-63
2023/08/25 11:46:06;;;;;;;4.97;4.67;;;22.50;99.90;;;;;;5031232;28;20647;-62
2023/08/25 11:48:35;;;;;;;5.33;4.70;;;22.60;99.90;;;;;;5033338;28;20475;-66
2023/08/25 11:51:01;;;;;;;5.20;4.80;;;22.60;99.90;;;;;;5030326;28;20425;-63
2023/08/25 11:53:27;;;;;;;4.90;4.57;;;22.40;99.90;;;;;;5026350;28;20442;-64
2023/08/25 11:56:04;;;;;;;5.57;5.00;;;22.50;99.90;;;;;;5012647;28;20942;-63
2023/08/25 11:58:34;;;;;;;5.40;5.10;;;22.30;99.90;;;;;;5025579;28;20725;-63
2023/08/25 12:01:01;;;;;;;5.20;4.80;;;22.20;99.90;;;;;;5032463;28;20471;-63
2023/08/25 12:03:27;;;;;;;5.37;4.87;;;22.20;99.90;;;;;;5030944;28;20499;-63
2023/08/25 12:05:52;;;;;;;5.50;5.10;;;22.30;99.90;;;;;;5031176;28;20420;-62
2023/08/25 12:08:18;;;;;;;6.10;5.50;;;22.30;99.90;;;;;;5032337;28;20409;-63
2023/08/25 12:10:44;;;;;;;5.03;4.60;;;22.40;99.90;;;;;;5032818;28;20753;-63
2023/08/25 12:13:10;;;;;;;71.93;64.03;;;22.60;99.90;;;;;;5031649;28;20170;-62
2023/08/25 12:15:44;;;;;;;83.47;70.37;;;22.70;99.90;;;;;;5032447;28;20198;-62
2023/08/25 12:18:13;;;;;;;190.50;150.00;;;22.90;99.90;;;;;;5031645;28;20259;-63
2023/08/25 12:20:42;;;;;;;14.30;12.80;;;22.90;99.90;;;;;;5032421;28;20554;-64
2023/08/25 12:23:08;;;;;;;9.60;8.60;;;23.10;99.90;;;;;;5030617;28;20424;-64
2023/08/25 12:25:35;;;;;;;4.87;4.53;;;23.20;99.90;;;;;;5030474;28;20413;-63
2023/08/25 12:28:00;;;;;;;5.43;4.93;;;23.20;99.90;;;;;;5030470;28;20170;-63
2023/08/25 12:30:28;;;;;;;6.40;4.93;;;23.30;99.90;;;;;;5030528;28;20500;-62
2023/08/25 12:32:54;;;;;;;4.73;4.43;;;23.20;99.90;;;;;;5026608;28;20596;-62
2023/08/25 12:35:22;;;;;;;5.33;5.03;;;23.10;99.90;;;;;;5029024;28;20453;-62
2023/08/25 12:37:49;;;;;;;5.77;5.37;;;23.30;99.90;;;;;;5031806;28;20445;-62
2023/08/25 12:40:20;;;;;;;5.83;5.30;;;23.30;99.90;;;;;;5030679;28;20490;-62